Terminal Aerodrome Forecast
Issued by NWS Denver/Boulder, CO

Home | Current Version | Previous Version | Text Only | Print | Product List | Glossary On
Versions: 1 2 3 4 5 6 7 8 9 10 11 12 13 14 15 16 17 18 19 20 21 22 23 24 25 26 27 28 29 30 31 32 33 34 35 36 37 38 39 40 41 42 43 44 45 46 47 48 49 50
000
FTUS45 KBOU 012109 AAA
TAFDEN
TAF AMD
KDEN 012109Z 0121/0224 13004KT P6SM SCT080 BKN140
      TEMPO 0122/0202 VRB20G32KT -TSRA BKN070CB
     FM020200 18010KT P6SM SCT080 BKN120
     FM020600 21010KT P6SM FEW080 SCT140 SCT200
     FM021500 03008KT P6SM FEW080 SCT140 SCT200
     FM022000 06010KT P6SM SCT080 BKN140 PROB30 0221/0224 VRB20G32KT
      -TSRA BKN070CB=

USA.gov is the U.S. government's official web portal to all federal, state and local government web resources and services.